Time;durP1;ratioP1;P1;durP2;ratioP2;P2;SDS_P1;SDS_P2;PMS_P1;PMS_P2;Temp;Humidity;BMP_temperature;BMP_pressure;BME280_temperature;BME280_humidity;BME280_pressure;Samples;Min_cycle;Max_cycle;Signal;HPM_P1;HPM_P2
2021/09/17 00:01:11;;;;;;;8.75;5.28;;;15.10;99.90;;;;;;5033755;28;20025;-86
2021/09/17 00:03:37;;;;;;;8.55;5.40;;;15.10;99.90;;;;;;5051007;28;20474;-86
2021/09/17 00:06:03;;;;;;;10.48;5.50;;;15.10;99.90;;;;;;5033984;28;20032;-86
2021/09/17 00:08:28;;;;;;;6.82;4.72;;;15.10;99.90;;;;;;5034126;28;20048;-85
2021/09/17 00:10:54;;;;;;;10.82;5.57;;;15.10;99.90;;;;;;5033583;28;20117;-86
2021/09/17 00:13:20;;;;;;;10.65;5.47;;;15.20;99.90;;;;;;5034169;28;20044;-86
2021/09/17 00:15:45;;;;;;;11.05;7.07;;;15.10;99.90;;;;;;5050770;28;20024;-86
2021/09/17 00:18:11;;;;;;;10.55;6.78;;;15.10;99.90;;;;;;5034140;28;20070;-85
2021/09/17 00:20:37;;;;;;;10.30;6.97;;;15.20;99.90;;;;;;5033557;28;20025;-85
2021/09/17 00:23:03;;;;;;;11.35;6.75;;;15.10;99.90;;;;;;5033861;28;20027;-86
2021/09/17 00:25:28;;;;;;;14.05;6.65;;;15.10;99.90;;;;;;5033870;28;20124;-86
2021/09/17 00:27:54;;;;;;;9.77;6.53;;;15.10;99.90;;;;;;5051846;28;20025;-85
2021/09/17 00:30:19;;;;;;;10.27;6.63;;;15.10;99.90;;;;;;5051160;28;20025;-86
2021/09/17 00:32:45;;;;;;;11.18;6.38;;;15.10;99.90;;;;;;5049996;28;20021;-86
2021/09/17 00:35:12;;;;;;;9.07;6.53;;;15.10;99.90;;;;;;5051721;28;20032;-85
2021/09/17 00:37:37;;;;;;;10.73;6.43;;;15.10;99.90;;;;;;5033755;28;20052;-86
2021/09/17 00:40:03;;;;;;;12.00;7.35;;;15.10;99.90;;;;;;5033214;28;20033;-86
2021/09/17 00:42:29;;;;;;;13.15;7.90;;;15.10;99.90;;;;;;5051524;28;20025;-86
2021/09/17 00:44:55;;;;;;;8.45;6.28;;;15.10;99.90;;;;;;5051418;28;20401;-86
2021/09/17 00:47:21;;;;;;;11.93;7.30;;;15.10;99.90;;;;;;5033673;28;20029;-86
2021/09/17 00:49:47;;;;;;;10.75;7.80;;;15.10;99.90;;;;;;5033021;28;20029;-86
2021/09/17 00:52:13;;;;;;;15.02;9.02;;;15.10;99.90;;;;;;5033545;28;20405;-85
2021/09/17 00:54:38;;;;;;;14.73;9.32;;;15.10;99.90;;;;;;5033516;28;20025;-85
2021/09/17 00:57:05;;;;;;;12.88;9.30;;;15.20;99.90;;;;;;5051325;28;20032;-85
2021/09/17 00:59:30;;;;;;;15.75;9.40;;;15.20;99.90;;;;;;5032915;28;20098;-85
2021/09/17 01:01:56;;;;;;;13.50;9.02;;;15.10;99.90;;;;;;5033472;28;20033;-85
2021/09/17 01:04:22;;;;;;;13.00;9.43;;;15.20;99.90;;;;;;5050166;28;20028;-85
2021/09/17 01:06:48;;;;;;;15.20;8.73;;;15.20;99.90;;;;;;5051208;28;20021;-85
2021/09/17 01:09:13;;;;;;;15.68;9.07;;;15.20;99.90;;;;;;5051672;28;20033;-85
2021/09/17 01:11:39;;;;;;;16.13;10.02;;;15.20;99.90;;;;;;5054896;28;20047;-85
2021/09/17 01:14:05;;;;;;;14.25;9.32;;;15.20;99.90;;;;;;5037047;28;20546;-85
2021/09/17 01:16:31;;;;;;;15.07;9.20;;;15.20;99.90;;;;;;5054828;28;20058;-85
2021/09/17 01:18:57;;;;;;;14.57;9.63;;;15.20;99.90;;;;;;5036335;28;20029;-85
2021/09/17 01:21:23;;;;;;;15.77;9.65;;;15.30;99.90;;;;;;5054533;28;20478;-85
2021/09/17 01:23:49;;;;;;;14.57;9.52;;;15.30;99.90;;;;;;5036831;28;20031;-85
2021/09/17 01:26:16;;;;;;;15.43;10.30;;;15.30;99.90;;;;;;5054547;28;20021;-85
2021/09/17 01:28:41;;;;;;;14.00;9.55;;;15.20;99.90;;;;;;5036584;28;20025;-85
2021/09/17 01:31:08;;;;;;;16.75;10.05;;;15.30;99.90;;;;;;5036087;28;20021;-85
2021/09/17 01:33:33;;;;;;;13.63;9.27;;;15.30;99.90;;;;;;5036445;28;20112;-85
2021/09/17 01:36:01;;;;;;;14.90;9.85;;;15.30;99.90;;;;;;5036560;28;20104;-85
2021/09/17 01:38:29;;;;;;;15.52;10.02;;;15.30;99.90;;;;;;5054333;28;20103;-85
2021/09/17 01:40:56;;;;;;;14.60;8.98;;;15.30;99.90;;;;;;5036002;28;20459;-85
2021/09/17 01:43:22;;;;;;;12.85;9.73;;;15.40;99.90;;;;;;5036311;28;20120;-85
2021/09/17 01:45:48;;;;;;;16.77;10.10;;;15.40;99.90;;;;;;5036156;28;20136;-86
2021/09/17 01:48:14;;;;;;;14.82;9.63;;;15.30;99.90;;;;;;5052844;28;20446;-85
2021/09/17 01:50:40;;;;;;;17.52;10.20;;;15.40;99.90;;;;;;5035769;28;20021;-85
2021/09/17 01:53:05;;;;;;;17.20;10.13;;;15.40;99.90;;;;;;5036222;28;20021;-85
2021/09/17 01:55:31;;;;;;;16.42;9.93;;;15.30;99.90;;;;;;5053915;28;20389;-85
2021/09/17 01:57:57;;;;;;;14.45;10.15;;;15.30;99.90;;;;;;5036111;28;20025;-85
2021/09/17 02:00:23;;;;;;;13.23;9.90;;;15.30;99.90;;;;;;5035659;28;20359;-85
2021/09/17 02:02:50;;;;;;;16.25;10.82;;;15.30;99.90;;;;;;5036097;28;20052;-85
2021/09/17 02:05:16;;;;;;;17.92;10.05;;;15.30;99.90;;;;;;5036073;28;20032;-85
2021/09/17 02:07:42;;;;;;;15.00;10.18;;;15.40;99.90;;;;;;5035810;28;20032;-85
2021/09/17 02:10:08;;;;;;;17.65;10.52;;;15.40;99.90;;;;;;5035292;28;20482;-85
2021/09/17 02:12:34;;;;;;;14.90;9.45;;;15.30;99.90;;;;;;5053672;28;20500;-86
2021/09/17 02:14:59;;;;;;;15.88;10.43;;;15.40;99.90;;;;;;5035921;28;20025;-85
2021/09/17 02:17:26;;;;;;;16.02;10.30;;;15.40;99.90;;;;;;5035880;28;20029;-85
2021/09/17 02:19:51;;;;;;;16.55;10.43;;;15.40;99.90;;;;;;5034763;28;20021;-85
2021/09/17 02:22:17;;;;;;;20.67;11.35;;;15.40;99.90;;;;;;5034907;28;20032;-85
2021/09/17 02:24:43;;;;;;;15.52;11.07;;;15.40;99.90;;;;;;5035738;28;20489;-85
2021/09/17 02:27:09;;;;;;;19.05;11.43;;;15.40;99.90;;;;;;5035553;28;20108;-85
2021/09/17 02:29:34;;;;;;;13.27;9.98;;;15.40;99.90;;;;;;5035191;28;20060;-85
2021/09/17 02:32:00;;;;;;;15.40;9.85;;;15.40;99.90;;;;;;5035434;28;20116;-85
2021/09/17 02:34:26;;;;;;;19.27;11.18;;;15.30;99.90;;;;;;5053392;28;20029;-85
2021/09/17 02:36:52;;;;;;;14.57;10.30;;;15.30;99.90;;;;;;5051928;28;20116;-85
2021/09/17 02:39:17;;;;;;;15.13;10.95;;;15.30;99.90;;;;;;5034925;28;20259;-86
2021/09/17 02:41:43;;;;;;;14.68;10.23;;;15.30;99.90;;;;;;5053219;28;20025;-85
2021/09/17 02:44:10;;;;;;;15.90;11.18;;;15.40;99.90;;;;;;5053306;28;20032;-85
2021/09/17 02:46:36;;;;;;;19.95;11.82;;;15.40;99.90;;;;;;5034988;28;20413;-85
2021/09/17 02:49:02;;;;;;;16.92;11.30;;;15.40;99.90;;;;;;5034589;28;20063;-85
2021/09/17 02:51:28;;;;;;;22.45;12.65;;;15.40;99.90;;;;;;5035119;28;20516;-85
2021/09/17 02:53:53;;;;;;;18.10;12.15;;;15.40;99.90;;;;;;5035063;28;20021;-85
2021/09/17 02:56:19;;;;;;;18.80;11.00;;;15.40;99.90;;;;;;5035060;28;20494;-86
2021/09/17 02:58:45;;;;;;;18.17;12.65;;;15.40;99.90;;;;;;5052861;28;20061;-86
2021/09/17 03:01:10;;;;;;;18.55;13.10;;;15.40;99.90;;;;;;5033933;28;20032;-85
2021/09/17 03:03:36;;;;;;;18.17;12.88;;;15.40;99.90;;;;;;5033763;28;20029;-85
2021/09/17 03:06:01;;;;;;;18.98;13.32;;;15.40;99.90;;;;;;5034580;28;20029;-85
2021/09/17 03:08:27;;;;;;;20.88;14.25;;;15.40;99.90;;;;;;5034871;28;20120;-85
2021/09/17 03:10:57;;;;;;;19.75;13.60;;;15.40;99.90;;;;;;5034338;28;20115;-85
2021/09/17 03:13:24;;;;;;;18.00;12.30;;;15.40;99.90;;;;;;5034698;28;20448;-85
2021/09/17 03:15:50;;;;;;;20.88;13.45;;;15.40;99.90;;;;;;5034624;28;20071;-85
2021/09/17 03:18:16;;;;;;;20.65;13.07;;;15.40;99.90;;;;;;5034605;28;20068;-85
2021/09/17 03:20:42;;;;;;;20.85;13.13;;;15.40;99.90;;;;;;5050780;28;20336;-85
2021/09/17 03:23:08;;;;;;;17.92;12.00;;;15.40;99.90;;;;;;5034583;28;20017;-85
2021/09/17 03:25:34;;;;;;;19.52;12.88;;;15.40;99.90;;;;;;5034475;28;20074;-85
2021/09/17 03:27:59;;;;;;;15.98;11.38;;;15.40;99.90;;;;;;5034674;28;20390;-85
2021/09/17 03:30:25;;;;;;;21.63;13.50;;;15.50;99.90;;;;;;5033965;28;20071;-85
2021/09/17 03:32:50;;;;;;;20.65;13.48;;;15.50;99.90;;;;;;5034103;28;20064;-85
2021/09/17 03:35:16;;;;;;;24.15;12.75;;;15.40;99.90;;;;;;5034321;28;20029;-85
2021/09/17 03:37:42;;;;;;;23.15;12.38;;;15.40;99.90;;;;;;5034733;28;20439;-85
2021/09/17 03:40:09;;;;;;;17.50;11.85;;;15.40;99.90;;;;;;5051706;28;20056;-85
2021/09/17 03:42:34;;;;;;;18.67;12.88;;;15.40;99.90;;;;;;5034219;28;20127;-85
2021/09/17 03:45:00;;;;;;;19.25;13.43;;;15.40;99.90;;;;;;5034309;28;20116;-85
2021/09/17 03:47:25;;;;;;;17.23;12.85;;;15.40;99.90;;;;;;5051943;28;20044;-85
2021/09/17 03:49:51;;;;;;;18.63;12.90;;;15.40;99.90;;;;;;5033701;28;20033;-85
2021/09/17 03:52:17;;;;;;;18.15;13.02;;;15.40;99.90;;;;;;5034136;28;20394;-85
2021/09/17 03:54:43;;;;;;;19.48;13.65;;;15.40;99.90;;;;;;5034163;28;20064;-85
2021/09/17 03:57:08;;;;;;;20.92;13.20;;;15.40;99.90;;;;;;5034083;28;20457;-85
2021/09/17 03:59:34;;;;;;;20.45;13.98;;;15.40;99.90;;;;;;5033578;28;20036;-85
2021/09/17 04:02:01;;;;;;;21.52;13.88;;;15.40;99.90;;;;;;5034009;28;20124;-85
2021/09/17 04:04:27;;;;;;;20.00;13.10;;;15.40;99.90;;;;;;5033930;28;20106;-85
2021/09/17 04:06:53;;;;;;;21.65;13.93;;;15.40;99.90;;;;;;5051824;28;20025;-85
2021/09/17 04:09:18;;;;;;;21.20;13.65;;;15.40;99.90;;;;;;5033449;28;20448;-85
2021/09/17 04:11:45;;;;;;;20.60;15.05;;;15.40;99.90;;;;;;5034080;28;20533;-85
2021/09/17 04:14:11;;;;;;;19.38;14.13;;;15.40;99.90;;;;;;5033976;28;20408;-85
2021/09/17 04:16:37;;;;;;;20.55;14.45;;;15.40;99.90;;;;;;5033929;28;20417;-85
2021/09/17 04:19:03;;;;;;;22.85;14.38;;;15.40;99.90;;;;;;5033394;28;20029;-85
2021/09/17 04:21:29;;;;;;;23.75;15.35;;;15.40;99.90;;;;;;5033813;28;20025;-86
2021/09/17 04:23:55;;;;;;;23.55;14.88;;;15.40;99.90;;;;;;5033879;28;20074;-86
2021/09/17 04:26:22;;;;;;;24.50;15.20;;;15.40;99.90;;;;;;5033752;28;20032;-85
2021/09/17 04:28:49;;;;;;;24.83;15.38;;;15.40;99.90;;;;;;5033373;28;20562;-85
2021/09/17 04:31:14;;;;;;;24.17;16.00;;;15.40;99.90;;;;;;5033427;28;20032;-85
2021/09/17 04:33:40;;;;;;;23.88;16.60;;;15.40;99.90;;;;;;5033896;28;20025;-85
2021/09/17 04:36:05;;;;;;;22.17;14.95;;;15.40;99.90;;;;;;5033945;28;20025;-85
2021/09/17 04:38:31;;;;;;;23.92;16.20;;;15.40;99.90;;;;;;5033781;28;20025;-85
2021/09/17 04:40:57;;;;;;;20.00;15.25;;;15.40;99.90;;;;;;5033170;28;20025;-85
2021/09/17 04:43:22;;;;;;;20.75;14.57;;;15.40;99.90;;;;;;5033689;28;20029;-85
2021/09/17 04:45:48;;;;;;;21.00;15.77;;;15.40;99.90;;;;;;5054975;28;20052;-85
2021/09/17 04:48:15;;;;;;;23.33;15.25;;;15.40;99.90;;;;;;5037310;28;20442;-85
2021/09/17 04:50:42;;;;;;;24.38;16.67;;;15.40;99.90;;;;;;5036783;28;20021;-84
2021/09/17 04:53:14;;;;;;;23.65;16.48;;;15.40;99.90;;;;;;5037176;28;20022;-85
2021/09/17 04:55:40;;;;;;;26.35;17.15;;;15.40;99.90;;;;;;5037335;28;20021;-85
2021/09/17 04:58:07;;;;;;;24.75;16.75;;;15.40;99.90;;;;;;5037197;28;20032;-85
2021/09/17 05:00:35;;;;;;;23.88;16.17;;;15.40;99.90;;;;;;5036532;28;20017;-85
2021/09/17 05:03:00;;;;;;;24.77;17.65;;;15.40;99.90;;;;;;5037196;28;20079;-85
2021/09/17 05:05:27;;;;;;;26.23;17.20;;;15.40;99.90;;;;;;5037421;28;20401;-85
2021/09/17 05:07:53;;;;;;;24.27;16.33;;;15.40;99.90;;;;;;5037318;28;20054;-85
2021/09/17 05:10:19;;;;;;;24.58;17.35;;;15.50;99.90;;;;;;5036814;28;20025;-85
2021/09/17 05:12:45;;;;;;;26.75;17.00;;;15.40;99.90;;;;;;5037262;28;20021;-85
2021/09/17 05:15:11;;;;;;;29.55;16.42;;;15.50;99.90;;;;;;5055606;28;20543;-85
2021/09/17 05:17:37;;;;;;;24.38;16.05;;;15.50;99.90;;;;;;5055042;28;20465;-85
2021/09/17 05:20:04;;;;;;;26.00;16.60;;;15.50;99.90;;;;;;5054316;28;20021;-85
2021/09/17 05:22:29;;;;;;;23.58;15.57;;;15.50;99.90;;;;;;5036833;28;20060;-85
2021/09/17 05:24:57;;;;;;;26.63;16.92;;;15.50;99.90;;;;;;5036672;28;20114;-85
2021/09/17 05:27:25;;;;;;;26.27;15.93;;;15.60;99.90;;;;;;5054467;28;20032;-86
2021/09/17 05:29:52;;;;;;;25.05;16.45;;;15.60;99.90;;;;;;5054064;28;20074;-85
2021/09/17 05:32:18;;;;;;;27.30;16.85;;;15.50;99.90;;;;;;5036405;28;20025;-86
2021/09/17 05:34:44;;;;;;;22.88;16.35;;;15.50;99.90;;;;;;5036714;28;20025;-85
2021/09/17 05:37:10;;;;;;;24.80;15.43;;;15.50;99.90;;;;;;5036393;28;20482;-86
2021/09/17 05:39:36;;;;;;;33.53;17.25;;;15.60;99.90;;;;;;5035867;28;20072;-85
2021/09/17 05:42:02;;;;;;;28.17;16.67;;;15.50;99.90;;;;;;5036393;28;20125;-85
2021/09/17 05:44:27;;;;;;;24.35;15.52;;;15.50;99.90;;;;;;5054263;28;20576;-86
2021/09/17 05:46:53;;;;;;;29.95;18.27;;;15.50;99.90;;;;;;5036864;28;20064;-86
2021/09/17 05:49:19;;;;;;;25.35;17.40;;;15.50;99.90;;;;;;5035797;28;20029;-86
2021/09/17 05:51:44;;;;;;;25.70;17.35;;;15.50;99.90;;;;;;5036525;28;20028;-86
2021/09/17 05:54:10;;;;;;;28.08;18.52;;;15.50;99.90;;;;;;5036544;28;20032;-86
2021/09/17 05:56:35;;;;;;;27.17;17.33;;;15.50;99.90;;;;;;5036095;28;20028;-86
2021/09/17 05:59:01;;;;;;;28.02;18.35;;;15.50;99.90;;;;;;5035722;28;20040;-86
2021/09/17 06:01:27;;;;;;;26.83;16.75;;;15.60;99.90;;;;;;5053979;28;20037;-86
2021/09/17 06:03:52;;;;;;;28.98;18.55;;;15.60;99.90;;;;;;5036323;28;20037;-85
2021/09/17 06:06:18;;;;;;;27.20;18.30;;;15.60;99.90;;;;;;5036265;28;20486;-86
2021/09/17 06:08:44;;;;;;;26.95;18.40;;;15.60;99.90;;;;;;5036101;28;20316;-86
2021/09/17 06:11:10;;;;;;;26.65;17.15;;;15.60;99.90;;;;;;5035381;28;20078;-86
2021/09/17 06:13:36;;;;;;;29.00;18.95;;;15.70;99.90;;;;;;5052576;28;20428;-85
2021/09/17 06:16:01;;;;;;;26.23;17.58;;;15.70;99.90;;;;;;5036167;28;20025;-86
2021/09/17 06:18:27;;;;;;;32.45;20.50;;;15.70;99.90;;;;;;5036224;28;20091;-86
2021/09/17 06:20:53;;;;;;;30.63;18.83;;;15.70;99.90;;;;;;5035558;28;20509;-86
2021/09/17 06:23:18;;;;;;;30.48;18.70;;;15.70;99.90;;;;;;5035977;28;20397;-85
2021/09/17 06:25:45;;;;;;;25.92;18.55;;;15.70;99.90;;;;;;5036057;28;20032;-86
2021/09/17 06:28:11;;;;;;;26.33;17.80;;;15.80;99.90;;;;;;5053748;28;20027;-86
2021/09/17 06:30:36;;;;;;;28.92;18.98;;;15.80;99.90;;;;;;5035401;28;20467;-85
2021/09/17 06:33:02;;;;;;;27.92;18.25;;;15.80;99.90;;;;;;5036727;28;20035;-86
2021/09/17 06:35:28;;;;;;;26.60;17.08;;;15.80;99.90;;;;;;5054131;28;20033;-85
2021/09/17 06:37:55;;;;;;;25.70;17.95;;;15.80;99.90;;;;;;5037037;28;20025;-85
2021/09/17 06:40:23;;;;;;;26.90;16.83;;;15.80;99.90;;;;;;5036179;28;20021;-85
2021/09/17 06:42:49;;;;;;;29.95;17.33;;;15.80;99.90;;;;;;5036339;28;20028;-86
2021/09/17 06:45:15;;;;;;;26.20;16.73;;;15.90;99.90;;;;;;5035510;28;20033;-86
2021/09/17 06:47:53;;;;;;;26.45;16.05;;;15.90;99.90;;;;;;5035244;28;20091;-86
2021/09/17 06:50:21;;;;;;;25.40;14.98;;;15.90;99.90;;;;;;5053136;28;20300;-86
2021/09/17 06:52:50;;;;;;;24.80;15.73;;;15.90;99.90;;;;;;5035270;28;20075;-86
2021/09/17 06:55:18;;;;;;;22.08;14.70;;;16.00;99.90;;;;;;5053097;28;20078;-86
2021/09/17 06:57:46;;;;;;;24.50;15.98;;;16.00;99.90;;;;;;5035263;28;20021;-86
2021/09/17 07:00:12;;;;;;;21.52;13.57;;;16.00;99.90;;;;;;5034531;28;20025;-86
2021/09/17 07:02:38;;;;;;;23.45;16.42;;;16.00;99.90;;;;;;5035016;28;20393;-86
2021/09/17 07:05:04;;;;;;;25.83;16.58;;;16.10;99.90;;;;;;5034986;28;20171;-86
2021/09/17 07:07:30;;;;;;;28.40;17.65;;;16.10;99.90;;;;;;5051017;28;20106;-86
2021/09/17 07:09:55;;;;;;;23.27;14.88;;;16.20;99.90;;;;;;5034153;28;20068;-85
2021/09/17 07:12:21;;;;;;;27.13;17.73;;;16.20;99.90;;;;;;5052734;28;20465;-85
2021/09/17 07:14:46;;;;;;;26.13;18.20;;;16.20;99.90;;;;;;5034941;28;20036;-85
2021/09/17 07:17:12;;;;;;;24.33;17.55;;;16.20;99.90;;;;;;5034700;28;20543;-86
2021/09/17 07:19:37;;;;;;;26.80;17.08;;;16.30;99.90;;;;;;5034201;28;20116;-86
2021/09/17 07:22:05;;;;;;;29.48;18.40;;;16.30;99.90;;;;;;5034578;28;20025;-86
2021/09/17 07:24:31;;;;;;;24.58;16.10;;;16.30;99.90;;;;;;5034746;28;20033;-86
2021/09/17 07:26:57;;;;;;;27.65;19.13;;;16.30;99.90;;;;;;5034640;28;20048;-86
2021/09/17 07:29:23;;;;;;;31.48;18.55;;;16.30;99.90;;;;;;5034040;28;20025;-85
2021/09/17 07:31:49;;;;;;;24.27;16.98;;;16.40;99.90;;;;;;5052400;28;20086;-86
2021/09/17 07:34:15;;;;;;;26.15;15.98;;;16.40;99.90;;;;;;5034326;28;20078;-86
2021/09/17 07:36:41;;;;;;;23.25;16.33;;;16.40;99.90;;;;;;5034369;28;20029;-86
2021/09/17 07:39:06;;;;;;;26.73;18.35;;;16.40;99.90;;;;;;5033947;28;20028;-85
2021/09/17 07:41:32;;;;;;;28.42;17.92;;;16.50;99.90;;;;;;5034365;28;20119;-86
2021/09/17 07:43:58;;;;;;;27.95;17.90;;;16.50;99.90;;;;;;5052178;28;20099;-85
2021/09/17 07:46:23;;;;;;;29.80;19.20;;;16.50;99.90;;;;;;5051919;28;20097;-86
2021/09/17 07:48:49;;;;;;;28.30;18.77;;;16.60;99.90;;;;;;5034002;28;20024;-86
2021/09/17 07:51:14;;;;;;;28.23;18.83;;;16.60;99.90;;;;;;5051855;28;20523;-87
2021/09/17 07:53:40;;;;;;;28.58;18.38;;;16.60;99.90;;;;;;5034373;28;20021;-86
2021/09/17 07:56:05;;;;;;;27.38;17.85;;;16.70;99.90;;;;;;5034116;28;20025;-86
2021/09/17 07:58:31;;;;;;;25.35;17.33;;;16.70;99.90;;;;;;5034223;28;20086;-86
2021/09/17 08:00:57;;;;;;;29.77;17.52;;;16.70;99.90;;;;;;5033619;28;20079;-86
2021/09/17 08:03:28;;;;;;;31.08;19.92;;;16.80;99.90;;;;;;5034123;28;20032;-86
2021/09/17 08:05:54;;;;;;;28.63;18.50;;;16.80;99.90;;;;;;5034098;28;20029;-86
2021/09/17 08:08:20;;;;;;;24.15;16.17;;;16.80;99.90;;;;;;5033985;28;20087;-86
2021/09/17 08:10:46;;;;;;;27.55;18.33;;;16.90;99.90;;;;;;5033518;28;20095;-86
2021/09/17 08:13:11;;;;;;;26.13;17.08;;;16.90;99.90;;;;;;5052016;28;20021;-86
2021/09/17 08:15:37;;;;;;;26.55;16.52;;;16.90;99.90;;;;;;5034025;28;20032;-86
2021/09/17 08:18:03;;;;;;;24.10;15.95;;;16.90;99.90;;;;;;5053026;28;20053;-86
2021/09/17 08:20:28;;;;;;;27.83;16.88;;;17.00;99.90;;;;;;5037422;28;20028;-86
2021/09/17 08:22:54;;;;;;;27.58;16.10;;;17.10;99.90;;;;;;5054586;28;20527;-86
2021/09/17 08:25:19;;;;;;;24.52;14.90;;;17.10;99.90;;;;;;5055798;28;20362;-86
2021/09/17 08:27:45;;;;;;;25.75;16.85;;;17.20;99.90;;;;;;5055865;28;20033;-86
2021/09/17 08:30:12;;;;;;;24.65;15.95;;;17.20;99.90;;;;;;5055155;28;20021;-86
2021/09/17 08:32:39;;;;;;;24.42;16.48;;;17.20;99.90;;;;;;5037719;28;20055;-86
2021/09/17 08:35:09;;;;;;;25.40;16.73;;;17.20;99.90;;;;;;5037717;28;20389;-86
2021/09/17 08:37:35;;;;;;;25.38;16.70;;;17.20;99.90;;;;;;5037847;28;20021;-86
2021/09/17 08:40:01;;;;;;;27.30;18.38;;;17.30;99.90;;;;;;5055038;28;20025;-85
2021/09/17 08:42:26;;;;;;;26.30;15.93;;;17.30;99.90;;;;;;5037678;28;20033;-86
2021/09/17 08:44:52;;;;;;;30.45;18.63;;;17.30;99.90;;;;;;5037610;28;20055;-86
2021/09/17 08:47:18;;;;;;;23.52;15.20;;;17.30;99.90;;;;;;5037394;28;20589;-86
2021/09/17 08:49:45;;;;;;;20.92;14.15;;;17.40;99.90;;;;;;5054743;28;20028;-86
2021/09/17 08:52:11;;;;;;;22.00;15.07;;;17.40;99.90;;;;;;5037500;28;20017;-86
2021/09/17 08:54:37;;;;;;;28.63;17.30;;;17.40;99.90;;;;;;5037339;28;20021;-86
2021/09/17 08:57:02;;;;;;;31.30;19.00;;;17.40;99.90;;;;;;5037341;28;20027;-86
2021/09/17 08:59:28;;;;;;;26.00;17.10;;;17.40;99.90;;;;;;5036904;28;20408;-86
2021/09/17 09:01:54;;;;;;;24.25;16.63;;;17.40;99.90;;;;;;5037443;28;20047;-86
2021/09/17 09:04:30;;;;;;;21.40;14.73;;;17.50;99.90;;;;;;5055319;28;20025;-86
2021/09/17 09:07:04;;;;;;;32.95;17.17;;;17.50;99.90;;;;;;5037146;28;20039;-85
2021/09/17 09:09:30;;;;;;;26.40;15.50;;;17.50;99.90;;;;;;5036437;28;20104;-86
2021/09/17 09:11:56;;;;;;;25.17;15.68;;;17.60;99.90;;;;;;5055004;28;20553;-86
2021/09/17 09:14:22;;;;;;;21.52;14.27;;;17.60;99.90;;;;;;5054924;28;20071;-86
2021/09/17 09:16:53;;;;;;;23.55;14.68;;;17.60;99.90;;;;;;5037316;28;20028;-86
2021/09/17 09:19:39;;;;;;;27.48;16.15;;;17.60;99.90;;;;;;5036564;28;20573;-86
2021/09/17 09:22:06;;;;;;;26.30;15.60;;;17.70;99.90;;;;;;5054917;28;20098;-86
2021/09/17 09:24:40;;;;;;;25.00;15.55;;;17.70;99.90;;;;;;5037362;28;20025;-86
2021/09/17 09:27:14;;;;;;;25.33;16.52;;;17.70;99.90;;;;;;5036935;28;20494;-86
2021/09/17 09:29:43;;;;;;;24.58;15.50;;;17.70;99.90;;;;;;5036290;28;20032;-86
2021/09/17 09:32:26;;;;;;;23.80;15.10;;;17.70;99.90;;;;;;5037091;28;20549;-86
2021/09/17 09:34:54;;;;;;;22.85;14.65;;;17.70;99.90;;;;;;5054649;28;20027;-85
2021/09/17 09:37:28;;;;;;;22.80;15.25;;;17.70;99.90;;;;;;5036737;28;20021;-86
2021/09/17 09:39:59;;;;;;;22.60;14.43;;;17.70;99.90;;;;;;5036099;28;20031;-86
2021/09/17 09:42:38;;;;;;;37.55;23.67;;;17.80;99.90;;;;;;5036567;28;20031;-86
2021/09/17 09:45:11;;;;;;;30.02;20.27;;;17.80;99.90;;;;;;5036564;28;20025;-86
2021/09/17 09:47:39;;;;;;;25.67;17.20;;;17.90;99.90;;;;;;5054220;28;20072;-86
2021/09/17 09:50:14;;;;;;;27.10;17.58;;;17.90;99.90;;;;;;5035792;28;20381;-86
2021/09/17 09:52:40;;;;;;;25.65;16.52;;;17.90;99.90;;;;;;5036320;28;20021;-86
2021/09/17 09:55:07;;;;;;;25.33;16.08;;;17.90;99.90;;;;;;5036356;28;20021;-87
2021/09/17 09:57:33;;;;;;;27.65;17.23;;;18.00;99.90;;;;;;5053968;28;20104;-86
2021/09/17 10:00:03;;;;;;;33.15;20.23;;;18.00;99.90;;;;;;5035642;28;20064;-86
2021/09/17 10:02:33;;;;;;;26.92;17.83;;;18.10;99.90;;;;;;5036697;28;20171;-86
2021/09/17 10:04:59;;;;;;;29.35;18.70;;;18.10;99.90;;;;;;5060020;28;20032;-85
2021/09/17 10:07:27;;;;;;;29.13;16.60;;;18.10;99.90;;;;;;5039916;28;20021;-85
2021/09/17 10:09:53;;;;;;;32.20;18.45;;;18.10;99.90;;;;;;5038017;28;20029;-86
2021/09/17 10:12:19;;;;;;;30.27;18.23;;;18.20;99.90;;;;;;5055794;28;20113;-85
2021/09/17 10:14:47;;;;;;;24.60;15.88;;;18.20;99.90;;;;;;5038486;28;20048;-85
2021/09/17 10:17:21;;;;;;;27.63;15.38;;;18.30;99.90;;;;;;5039933;28;20021;-85
2021/09/17 10:19:49;;;;;;;22.30;14.32;;;18.30;99.90;;;;;;5038821;28;20060;-85
2021/09/17 10:22:41;;;;;;;19.75;13.68;;;18.40;99.90;;;;;;5036192;28;20078;-85
2021/09/17 10:25:12;;;;;;;23.80;13.10;;;18.40;99.90;;;;;;5036197;28;20489;-87
2021/09/17 10:27:43;;;;;;;21.17;12.85;;;18.50;99.90;;;;;;5035585;28;20029;-86
2021/09/17 10:30:13;;;;;;;17.40;10.88;;;18.50;99.90;;;;;;5052959;28;20025;-87
2021/09/17 10:32:48;;;;;;;15.00;10.40;;;18.60;99.90;;;;;;5035345;28;20017;-86
2021/09/17 10:35:22;;;;;;;23.75;12.68;;;18.60;99.90;;;;;;5053245;28;20104;-86
2021/09/17 10:37:59;;;;;;;25.05;15.70;;;18.60;99.90;;;;;;5053187;28;20074;-86
2021/09/17 10:40:55;;;;;;;28.85;16.40;;;18.70;99.90;;;;;;5034817;28;20025;-86
2021/09/17 10:43:28;;;;;;;21.40;13.43;;;18.70;99.90;;;;;;5034890;28;20477;-86
2021/09/17 10:45:58;;;;;;;21.63;13.32;;;18.70;99.90;;;;;;5035291;28;20029;-86
2021/09/17 10:48:52;;;;;;;19.95;12.38;;;18.80;99.90;;;;;;5035255;28;20052;-86
2021/09/17 10:51:38;;;;;;;25.98;16.38;;;18.70;99.90;;;;;;5035187;28;20048;-86
2021/09/17 10:54:10;;;;;;;22.48;14.88;;;18.80;99.90;;;;;;5035449;28;20031;-86
2021/09/17 10:56:59;;;;;;;22.83;14.23;;;18.80;99.90;;;;;;5051865;28;20402;-86
2021/09/17 10:59:28;;;;;;;19.52;13.30;;;18.80;99.90;;;;;;5052210;28;20053;-87
2021/09/17 11:02:03;;;;;;;23.35;13.48;;;18.80;99.90;;;;;;5034754;28;20032;-86
2021/09/17 11:04:39;;;;;;;29.75;16.90;;;18.90;99.90;;;;;;5035288;28;20060;-87
2021/09/17 11:07:19;;;;;;;23.35;16.00;;;18.90;99.90;;;;;;5053168;28;20098;-86
2021/09/17 11:09:49;;;;;;;28.67;17.45;;;18.90;99.90;;;;;;5034290;28;20037;-86
2021/09/17 11:12:25;;;;;;;22.95;15.07;;;19.00;99.90;;;;;;5034833;28;20481;-86
2021/09/17 11:15:00;;;;;;;21.38;13.93;;;18.90;99.90;;;;;;5034880;28;20025;-86
2021/09/17 11:17:36;;;;;;;26.15;17.00;;;19.00;99.90;;;;;;5034696;28;20051;-86
2021/09/17 11:20:03;;;;;;;26.98;16.50;;;19.10;99.90;;;;;;5034233;28;20091;-86
2021/09/17 11:22:30;;;;;;;28.38;18.27;;;19.10;99.90;;;;;;5034790;28;20025;-86
2021/09/17 11:25:05;;;;;;;26.27;17.95;;;19.20;99.90;;;;;;5052558;28;20249;-86
2021/09/17 11:27:30;;;;;;;31.10;18.80;;;19.30;99.90;;;;;;5034762;28;20028;-86
2021/09/17 11:30:09;;;;;;;22.38;15.13;;;19.30;99.90;;;;;;5034150;28;20025;-86
2021/09/17 11:32:35;;;;;;;28.90;18.70;;;19.40;99.90;;;;;;5039654;28;20063;-86
2021/09/17 11:35:08;;;;;;;25.83;16.35;;;19.40;99.90;;;;;;5060268;28;20366;-86
2021/09/17 11:37:34;;;;;;;27.60;15.98;;;19.40;99.90;;;;;;5043163;28;20087;-86
2021/09/17 11:40:08;;;;;;;27.38;18.52;;;19.40;99.90;;;;;;5041040;28;20029;-86
2021/09/17 11:42:35;;;;;;;26.80;18.02;;;19.40;99.90;;;;;;5060474;28;20021;-87
2021/09/17 11:45:17;;;;;;;26.40;16.77;;;19.40;99.90;;;;;;5039043;28;20029;-86
2021/09/17 11:47:48;;;;;;;31.50;20.23;;;19.40;99.90;;;;;;5038824;28;20033;-86
2021/09/17 11:50:15;;;;;;;26.50;18.05;;;19.40;99.90;;;;;;5052709;28;20393;-86
2021/09/17 11:52:50;;;;;;;26.40;17.73;;;19.40;99.90;;;;;;5034024;28;20025;-86
2021/09/17 11:55:18;;;;;;;21.50;14.60;;;19.40;99.90;;;;;;5034269;28;20112;-86
2021/09/17 11:57:49;;;;;;;25.73;15.85;;;19.50;99.90;;;;;;5052037;28;20021;-86
2021/09/17 12:00:18;;;;;;;24.63;16.73;;;19.50;99.90;;;;;;5033756;28;20105;-86
2021/09/17 12:02:46;;;;;;;24.35;15.13;;;19.60;99.90;;;;;;5051961;28;20036;-86
2021/09/17 12:05:20;;;;;;;26.10;16.33;;;19.60;99.90;;;;;;5051767;28;20032;-86
2021/09/17 12:07:50;;;;;;;25.50;17.35;;;19.60;99.90;;;;;;5034206;28;20086;-86
2021/09/17 12:10:18;;;;;;;24.02;16.63;;;19.70;99.90;;;;;;5033490;28;20120;-86
2021/09/17 12:12:46;;;;;;;26.63;17.52;;;19.80;99.90;;;;;;5051985;28;20025;-86
2021/09/17 12:15:23;;;;;;;26.05;17.02;;;19.80;99.90;;;;;;5052048;28;20025;-86
2021/09/17 12:18:04;;;;;;;30.45;19.70;;;19.90;99.90;;;;;;5052015;28;20676;-86
2021/09/17 12:20:43;;;;;;;26.95;17.15;;;19.90;99.90;;;;;;5033792;28;20126;-86
2021/09/17 12:23:12;;;;;;;23.35;15.13;;;19.90;99.90;;;;;;5034048;28;20381;-86
2021/09/17 12:25:37;;;;;;;23.77;15.77;;;20.00;99.90;;;;;;5033839;28;20036;-86
2021/09/17 12:28:09;;;;;;;23.80;15.57;;;20.00;99.90;;;;;;5051737;28;20393;-86
2021/09/17 12:30:36;;;;;;;24.45;15.18;;;20.00;99.90;;;;;;5033364;28;20074;-86